»·PEaware :: N523VG KJFK-KEWR

N523VG :: KJFK-KEWR

FLIGHT INFORMATION

Flight Status: Arrived
Operator: Privately registered:
United States
More flights under this callsign
Pilot: Thomas S. (17015)
Aircraft: Unknown
(VIPJ)
More flights by this aircraft type
Origin: KJFK Kennedy Intl
United States
Destination: KEWR Newark Intl
United States
More flights between these airports :: More routes between these airports
Route: JFK5 JFK V16 DIXIE V276 RBV V249 SBJ
File this flight plan on PilotEdge
Remarks:
Altitude:
(Current/Filed)
6,000ft
Speed:
(Current/Filed)
300kts
Departed: 15-Nov-22 11:19 AM
Arrived: 15-Nov-22 11:47 AM
Distance/Time
Traveled:
18nm/0:28
Distance/Time
To Go:
Arrived

Flight Plot

Page will automatically refresh every two minutes.

Flight plan parsing failed; only flown route is shown


Map Options




Map Legend


Flown Route
Filed Route
Departure Airport
Arrival Airport
Navaid (VOR, NDB)
Fix

Horizontal Profiles

Position Reports

Time Latitude Longitude Heading Altitude Ground
Speed
15-Nov-22 10:43 40.650491 -73.810695 60 9ft 0kts
15-Nov-22 10:44 40.650491 -73.810695 60 9ft 0kts
15-Nov-22 10:45 40.650491 -73.810695 60 9ft 0kts
15-Nov-22 10:46 40.650491 -73.810695 60 9ft 0kts
15-Nov-22 10:47 40.650491 -73.810695 60 9ft 0kts
15-Nov-22 10:48 40.650491 -73.810695 60 9ft 0kts
15-Nov-22 10:49 40.650491 -73.810695 60 9ft 0kts
15-Nov-22 10:50 40.650491 -73.810695 60 9ft 0kts
15-Nov-22 10:51 40.650491 -73.810695 60 9ft 0kts
15-Nov-22 10:52 40.650491 -73.810695 60 9ft 0kts
15-Nov-22 10:53 40.650491 -73.810695 60 9ft 0kts
15-Nov-22 10:54 40.650491 -73.810695 60 9ft 0kts
15-Nov-22 10:55 40.650491 -73.810695 60 9ft 0kts
15-Nov-22 10:56 40.650491 -73.810695 60 9ft 0kts
15-Nov-22 10:58 40.650491 -73.810695 60 9ft 0kts
15-Nov-22 10:59 40.650491 -73.810695 60 9ft 0kts
15-Nov-22 11:00 40.650491 -73.810695 60 9ft 0kts
15-Nov-22 11:01 40.650491 -73.810695 60 9ft 0kts
15-Nov-22 11:02 40.650491 -73.810695 60 9ft 0kts
15-Nov-22 11:03 40.650491 -73.810695 60 9ft 0kts
15-Nov-22 11:04 40.650491 -73.810695 60 9ft 0kts
15-Nov-22 11:05 40.650491 -73.810695 60 9ft 0kts
15-Nov-22 11:06 40.650491 -73.810695 60 9ft 0kts
15-Nov-22 11:07 40.650491 -73.810695 60 9ft 0kts
15-Nov-22 11:08 40.650491 -73.810695 60 9ft 0kts
15-Nov-22 11:09 40.650491 -73.810695 60 9ft 0kts
15-Nov-22 11:10 40.650491 -73.810695 60 9ft 0kts
15-Nov-22 11:11 40.650491 -73.810695 60 9ft 0kts
15-Nov-22 11:12 40.650491 -73.810695 60 9ft 0kts
15-Nov-22 11:13 40.650447 -73.810641 225 9ft 0kts
15-Nov-22 11:14 40.650426 -73.810691 244 9ft 0kts
15-Nov-22 11:15 40.649710 -73.811791 224 9ft 5kts
15-Nov-22 11:16 40.649974 -73.814259 299 9ft 7kts
15-Nov-22 11:17 40.649846 -73.815346 212 9ft 1kts
15-Nov-22 11:18 40.648689 -73.816264 211 9ft 6kts
15-Nov-22 11:19 40.641427 -73.801564 121 265ft 180kts
15-Nov-22 11:19 40.614150 -73.734163 116 2411ft 260kts
15-Nov-22 11:21 40.568933 -73.638355 157 5029ft 276kts
15-Nov-22 11:22 40.488579 -73.644944 187 4989ft 264kts
15-Nov-22 11:23 40.454816 -73.722937 255 5748ft 291kts
15-Nov-22 11:23 40.439900 -73.800841 255 6004ft 259kts
15-Nov-22 11:24 40.420385 -73.895034 237 6013ft 260kts
15-Nov-22 11:25 40.369166 -73.965370 210 6005ft 276kts
15-Nov-22 11:27 40.291014 -74.022923 209 6000ft 268kts
15-Nov-22 11:27 40.236710 -74.062617 209 6000ft 264kts
15-Nov-22 11:28 40.193897 -74.130445 288 5645ft 271kts
15-Nov-22 11:29 40.247021 -74.202410 317 4641ft 250kts
15-Nov-22 11:30 40.299319 -74.265705 317 3645ft 265kts
15-Nov-22 11:31 40.367553 -74.291275 357 3006ft 263kts
15-Nov-22 11:32 40.440905 -74.296023 357 3000ft 259kts
15-Nov-22 11:33 40.510833 -74.283037 25 3003ft 255kts
15-Nov-22 11:34 40.557984 -74.318488 267 3018ft 249kts
15-Nov-22 11:35 40.535070 -74.399293 207 3018ft 260kts
15-Nov-22 11:36 40.468244 -74.444314 207 2995ft 255kts
15-Nov-22 11:37 40.404724 -74.487090 207 3002ft 259kts
15-Nov-22 11:38 40.358123 -74.453461 73 3026ft 261kts
15-Nov-22 11:39 40.399893 -74.372143 47 2996ft 247kts
15-Nov-22 11:40 40.453842 -74.316662 28 3001ft 243kts
15-Nov-22 11:41 40.514778 -74.276870 25 3000ft 242kts
15-Nov-22 11:42 40.574779 -74.239064 25 2275ft 217kts
15-Nov-22 11:43 40.622774 -74.208807 25 1268ft 140kts
15-Nov-22 11:44 40.653957 -74.189243 25 553ft 123kts
15-Nov-22 11:45 40.684707 -74.169804 25 9ft 104kts
15-Nov-22 11:46 40.693711 -74.166099 335 9ft 4kts
15-Nov-22 11:47 40.690952 -74.168032 206 9ft 11kts
15-Nov-22 11:48 40.686845 -74.170615 205 9ft 16kts
15-Nov-22 11:49 40.682924 -74.173105 205 9ft 16kts
15-Nov-22 11:50 40.680851 -74.174419 205 9ft 7kts
15-Nov-22 11:51 40.678262 -74.176055 205 9ft 11kts
15-Nov-22 11:52 40.677057 -74.176808 205 9ft 0kts

Navigation Log

Ident Type
Flight plan parsing failed, navigation log unavailable